sensor_id;sensor_type;location;lat;lon;timestamp;P1;durP1;ratioP1;P2;durP2;ratioP2
60979;SDS011;46851;49.160;8.980;2023-04-15T00:00:09;8.63;;;3.50;;
60979;SDS011;46851;49.160;8.980;2023-04-15T00:02:35;6.85;;;3.35;;
60979;SDS011;46851;49.160;8.980;2023-04-15T00:05:01;5.40;;;2.88;;
60979;SDS011;46851;49.160;8.980;2023-04-15T00:07:27;9.65;;;3.70;;
60979;SDS011;46851;49.160;8.980;2023-04-15T00:09:53;7.40;;;4.20;;
60979;SDS011;46851;49.160;8.980;2023-04-15T00:12:21;8.98;;;3.17;;
60979;SDS011;46851;49.160;8.980;2023-04-15T00:14:47;8.18;;;3.92;;
60979;SDS011;46851;49.160;8.980;2023-04-15T00:17:14;8.15;;;3.40;;
60979;SDS011;46851;49.160;8.980;2023-04-15T00:19:41;8.52;;;3.70;;
60979;SDS011;46851;49.160;8.980;2023-04-15T00:22:08;6.82;;;3.70;;
60979;SDS011;46851;49.160;8.980;2023-04-15T00:24:35;9.05;;;3.85;;
60979;SDS011;46851;49.160;8.980;2023-04-15T00:27:01;10.20;;;4.18;;
60979;SDS011;46851;49.160;8.980;2023-04-15T00:29:27;8.30;;;4.20;;
60979;SDS011;46851;49.160;8.980;2023-04-15T00:31:54;9.90;;;4.20;;
60979;SDS011;46851;49.160;8.980;2023-04-15T00:34:21;8.82;;;4.45;;
60979;SDS011;46851;49.160;8.980;2023-04-15T00:36:47;8.85;;;4.47;;
60979;SDS011;46851;49.160;8.980;2023-04-15T00:39:13;10.40;;;4.05;;
60979;SDS011;46851;49.160;8.980;2023-04-15T00:41:40;10.15;;;4.20;;
60979;SDS011;46851;49.160;8.980;2023-04-15T00:44:06;14.73;;;4.47;;
60979;SDS011;46851;49.160;8.980;2023-04-15T00:46:34;8.20;;;3.95;;
60979;SDS011;46851;49.160;8.980;2023-04-15T00:49:05;11.57;;;4.35;;
60979;SDS011;46851;49.160;8.980;2023-04-15T00:51:32;9.00;;;4.00;;
60979;SDS011;46851;49.160;8.980;2023-04-15T00:54:00;10.13;;;4.55;;
60979;SDS011;46851;49.160;8.980;2023-04-15T00:56:26;7.32;;;4.20;;
60979;SDS011;46851;49.160;8.980;2023-04-15T00:58:53;10.13;;;4.25;;
60979;SDS011;46851;49.160;8.980;2023-04-15T01:01:20;10.50;;;4.65;;
60979;SDS011;46851;49.160;8.980;2023-04-15T01:03:47;10.30;;;4.38;;
60979;SDS011;46851;49.160;8.980;2023-04-15T01:06:13;8.43;;;4.22;;
60979;SDS011;46851;49.160;8.980;2023-04-15T01:08:39;9.05;;;4.30;;
60979;SDS011;46851;49.160;8.980;2023-04-15T01:11:05;12.00;;;5.05;;
60979;SDS011;46851;49.160;8.980;2023-04-15T01:13:32;14.15;;;6.05;;
60979;SDS011;46851;49.160;8.980;2023-04-15T01:15:58;11.98;;;4.18;;
60979;SDS011;46851;49.160;8.980;2023-04-15T01:18:26;8.30;;;4.32;;
60979;SDS011;46851;49.160;8.980;2023-04-15T01:20:52;8.57;;;4.32;;
60979;SDS011;46851;49.160;8.980;2023-04-15T01:23:19;14.35;;;4.85;;
60979;SDS011;46851;49.160;8.980;2023-04-15T01:25:47;8.23;;;5.13;;
60979;SDS011;46851;49.160;8.980;2023-04-15T01:28:13;20.42;;;6.50;;
60979;SDS011;46851;49.160;8.980;2023-04-15T01:30:40;14.05;;;5.38;;
60979;SDS011;46851;49.160;8.980;2023-04-15T01:33:06;11.32;;;5.38;;
60979;SDS011;46851;49.160;8.980;2023-04-15T01:35:32;10.10;;;6.45;;
60979;SDS011;46851;49.160;8.980;2023-04-15T01:38:03;16.08;;;5.10;;
60979;SDS011;46851;49.160;8.980;2023-04-15T01:40:30;12.35;;;5.75;;
60979;SDS011;46851;49.160;8.980;2023-04-15T01:42:56;11.95;;;6.20;;
60979;SDS011;46851;49.160;8.980;2023-04-15T01:45:22;15.20;;;5.38;;
60979;SDS011;46851;49.160;8.980;2023-04-15T01:47:48;10.68;;;4.78;;
60979;SDS011;46851;49.160;8.980;2023-04-15T01:50:14;11.75;;;5.28;;
60979;SDS011;46851;49.160;8.980;2023-04-15T01:52:40;15.43;;;4.85;;
60979;SDS011;46851;49.160;8.980;2023-04-15T01:55:06;13.45;;;5.82;;
60979;SDS011;46851;49.160;8.980;2023-04-15T01:57:33;12.55;;;5.13;;
60979;SDS011;46851;49.160;8.980;2023-04-15T01:59:59;12.55;;;5.57;;
60979;SDS011;46851;49.160;8.980;2023-04-15T02:02:26;10.25;;;5.03;;
60979;SDS011;46851;49.160;8.980;2023-04-15T02:04:52;11.52;;;4.80;;
60979;SDS011;46851;49.160;8.980;2023-04-15T02:07:18;17.67;;;6.65;;
60979;SDS011;46851;49.160;8.980;2023-04-15T02:09:44;13.02;;;6.10;;
60979;SDS011;46851;49.160;8.980;2023-04-15T02:12:10;9.80;;;5.32;;
60979;SDS011;46851;49.160;8.980;2023-04-15T02:14:37;12.75;;;5.85;;
60979;SDS011;46851;49.160;8.980;2023-04-15T02:17:03;12.00;;;6.03;;
60979;SDS011;46851;49.160;8.980;2023-04-15T02:19:33;12.60;;;6.63;;
60979;SDS011;46851;49.160;8.980;2023-04-15T02:21:59;11.77;;;5.88;;
60979;SDS011;46851;49.160;8.980;2023-04-15T02:24:26;17.33;;;6.63;;
60979;SDS011;46851;49.160;8.980;2023-04-15T02:26:52;13.60;;;5.88;;
60979;SDS011;46851;49.160;8.980;2023-04-15T02:29:18;7.97;;;5.38;;
60979;SDS011;46851;49.160;8.980;2023-04-15T02:31:44;13.52;;;5.50;;
60979;SDS011;46851;49.160;8.980;2023-04-15T02:34:10;8.85;;;5.80;;
60979;SDS011;46851;49.160;8.980;2023-04-15T02:36:37;10.20;;;5.25;;
60979;SDS011;46851;49.160;8.980;2023-04-15T02:39:04;16.60;;;5.95;;
60979;SDS011;46851;49.160;8.980;2023-04-15T02:41:30;9.57;;;5.90;;
60979;SDS011;46851;49.160;8.980;2023-04-15T02:43:56;11.90;;;5.90;;
60979;SDS011;46851;49.160;8.980;2023-04-15T02:46:22;9.55;;;5.65;;
60979;SDS011;46851;49.160;8.980;2023-04-15T02:48:49;14.68;;;6.15;;
60979;SDS011;46851;49.160;8.980;2023-04-15T02:51:18;12.55;;;6.43;;
60979;SDS011;46851;49.160;8.980;2023-04-15T02:53:45;14.32;;;6.15;;
60979;SDS011;46851;49.160;8.980;2023-04-15T02:56:12;12.13;;;6.10;;
60979;SDS011;46851;49.160;8.980;2023-04-15T02:58:39;12.00;;;6.35;;
60979;SDS011;46851;49.160;8.980;2023-04-15T03:01:05;15.63;;;7.22;;
60979;SDS011;46851;49.160;8.980;2023-04-15T03:03:33;16.55;;;7.03;;
60979;SDS011;46851;49.160;8.980;2023-04-15T03:05:59;13.80;;;6.65;;
60979;SDS011;46851;49.160;8.980;2023-04-15T03:08:25;13.90;;;7.03;;
60979;SDS011;46851;49.160;8.980;2023-04-15T03:10:51;15.35;;;6.68;;
60979;SDS011;46851;49.160;8.980;2023-04-15T03:13:18;16.98;;;7.10;;
60979;SDS011;46851;49.160;8.980;2023-04-15T03:15:47;13.93;;;7.20;;
60979;SDS011;46851;49.160;8.980;2023-04-15T03:18:13;19.17;;;7.38;;
60979;SDS011;46851;49.160;8.980;2023-04-15T03:20:39;16.42;;;7.22;;
60979;SDS011;46851;49.160;8.980;2023-04-15T03:23:05;14.70;;;7.03;;
60979;SDS011;46851;49.160;8.980;2023-04-15T03:25:31;15.15;;;8.25;;
60979;SDS011;46851;49.160;8.980;2023-04-15T03:27:58;12.68;;;6.95;;
60979;SDS011;46851;49.160;8.980;2023-04-15T03:30:24;19.65;;;8.82;;
60979;SDS011;46851;49.160;8.980;2023-04-15T03:32:50;18.10;;;7.63;;
60979;SDS011;46851;49.160;8.980;2023-04-15T03:35:16;15.63;;;7.93;;
60979;SDS011;46851;49.160;8.980;2023-04-15T03:37:42;17.90;;;7.82;;
60979;SDS011;46851;49.160;8.980;2023-04-15T03:40:08;13.48;;;6.95;;
60979;SDS011;46851;49.160;8.980;2023-04-15T03:42:34;14.48;;;7.90;;
60979;SDS011;46851;49.160;8.980;2023-04-15T03:45:00;22.73;;;8.20;;
60979;SDS011;46851;49.160;8.980;2023-04-15T03:47:26;18.95;;;7.90;;
60979;SDS011;46851;49.160;8.980;2023-04-15T03:49:52;17.02;;;7.50;;
60979;SDS011;46851;49.160;8.980;2023-04-15T03:52:18;18.05;;;8.45;;
60979;SDS011;46851;49.160;8.980;2023-04-15T03:54:44;15.13;;;7.30;;
60979;SDS011;46851;49.160;8.980;2023-04-15T03:57:10;12.80;;;7.32;;
60979;SDS011;46851;49.160;8.980;2023-04-15T03:59:36;15.25;;;7.10;;
60979;SDS011;46851;49.160;8.980;2023-04-15T04:02:02;10.93;;;7.22;;
60979;SDS011;46851;49.160;8.980;2023-04-15T04:04:28;16.55;;;7.25;;
60979;SDS011;46851;49.160;8.980;2023-04-15T04:06:54;14.95;;;7.70;;
60979;SDS011;46851;49.160;8.980;2023-04-15T04:09:20;19.60;;;6.40;;
60979;SDS011;46851;49.160;8.980;2023-04-15T04:11:46;13.70;;;7.07;;
60979;SDS011;46851;49.160;8.980;2023-04-15T04:14:12;16.10;;;7.90;;
60979;SDS011;46851;49.160;8.980;2023-04-15T04:16:38;11.90;;;7.78;;
60979;SDS011;46851;49.160;8.980;2023-04-15T04:19:04;13.07;;;7.18;;
60979;SDS011;46851;49.160;8.980;2023-04-15T04:21:30;11.45;;;7.25;;
60979;SDS011;46851;49.160;8.980;2023-04-15T04:23:58;19.40;;;7.50;;
60979;SDS011;46851;49.160;8.980;2023-04-15T04:26:24;15.35;;;7.72;;
60979;SDS011;46851;49.160;8.980;2023-04-15T04:28:50;15.82;;;8.07;;
60979;SDS011;46851;49.160;8.980;2023-04-15T04:31:16;17.95;;;7.70;;
60979;SDS011;46851;49.160;8.980;2023-04-15T04:33:42;14.48;;;7.70;;
60979;SDS011;46851;49.160;8.980;2023-04-15T04:36:08;14.77;;;7.97;;
60979;SDS011;46851;49.160;8.980;2023-04-15T04:38:34;19.20;;;8.05;;
60979;SDS011;46851;49.160;8.980;2023-04-15T04:41:00;12.93;;;7.28;;
60979;SDS011;46851;49.160;8.980;2023-04-15T04:43:26;17.92;;;8.55;;
60979;SDS011;46851;49.160;8.980;2023-04-15T04:45:52;16.52;;;8.80;;
60979;SDS011;46851;49.160;8.980;2023-04-15T04:48:18;16.75;;;8.77;;
60979;SDS011;46851;49.160;8.980;2023-04-15T04:50:44;16.70;;;7.97;;
60979;SDS011;46851;49.160;8.980;2023-04-15T04:53:11;15.77;;;8.40;;
60979;SDS011;46851;49.160;8.980;2023-04-15T04:55:37;14.98;;;8.48;;
60979;SDS011;46851;49.160;8.980;2023-04-15T04:58:03;14.23;;;8.65;;
60979;SDS011;46851;49.160;8.980;2023-04-15T05:00:29;14.77;;;8.60;;
60979;SDS011;46851;49.160;8.980;2023-04-15T05:02:55;19.25;;;9.05;;
60979;SDS011;46851;49.160;8.980;2023-04-15T05:05:21;19.83;;;9.27;;
60979;SDS011;46851;49.160;8.980;2023-04-15T05:07:47;16.38;;;8.63;;
60979;SDS011;46851;49.160;8.980;2023-04-15T05:10:14;15.63;;;7.00;;
60979;SDS011;46851;49.160;8.980;2023-04-15T05:12:42;12.15;;;7.57;;
60979;SDS011;46851;49.160;8.980;2023-04-15T05:15:08;11.23;;;6.70;;
60979;SDS011;46851;49.160;8.980;2023-04-15T05:17:34;12.65;;;6.90;;
60979;SDS011;46851;49.160;8.980;2023-04-15T05:20:01;15.55;;;7.22;;
60979;SDS011;46851;49.160;8.980;2023-04-15T05:22:27;11.85;;;8.20;;
60979;SDS011;46851;49.160;8.980;2023-04-15T05:24:53;17.55;;;8.55;;
60979;SDS011;46851;49.160;8.980;2023-04-15T05:27:20;18.75;;;9.18;;
60979;SDS011;46851;49.160;8.980;2023-04-15T05:29:47;22.20;;;9.00;;
60979;SDS011;46851;49.160;8.980;2023-04-15T05:32:13;18.40;;;8.88;;
60979;SDS011;46851;49.160;8.980;2023-04-15T05:34:39;14.57;;;9.23;;
60979;SDS011;46851;49.160;8.980;2023-04-15T05:37:05;16.42;;;8.70;;
60979;SDS011;46851;49.160;8.980;2023-04-15T05:39:31;15.05;;;8.20;;
60979;SDS011;46851;49.160;8.980;2023-04-15T05:41:58;15.32;;;7.88;;
60979;SDS011;46851;49.160;8.980;2023-04-15T05:44:24;13.15;;;8.20;;
60979;SDS011;46851;49.160;8.980;2023-04-15T05:46:50;10.48;;;7.60;;
60979;SDS011;46851;49.160;8.980;2023-04-15T05:49:17;13.18;;;7.07;;
60979;SDS011;46851;49.160;8.980;2023-04-15T05:51:43;13.00;;;8.02;;
60979;SDS011;46851;49.160;8.980;2023-04-15T05:54:09;13.43;;;7.18;;
60979;SDS011;46851;49.160;8.980;2023-04-15T05:56:35;9.43;;;5.85;;
60979;SDS011;46851;49.160;8.980;2023-04-15T05:59:01;13.73;;;6.18;;
60979;SDS011;46851;49.160;8.980;2023-04-15T06:01:27;10.60;;;6.28;;
60979;SDS011;46851;49.160;8.980;2023-04-15T06:03:54;11.43;;;6.22;;
60979;SDS011;46851;49.160;8.980;2023-04-15T06:06:20;9.15;;;6.00;;
60979;SDS011;46851;49.160;8.980;2023-04-15T06:08:46;10.63;;;6.60;;
60979;SDS011;46851;49.160;8.980;2023-04-15T06:11:12;10.73;;;6.18;;
60979;SDS011;46851;49.160;8.980;2023-04-15T06:13:38;12.88;;;7.50;;
60979;SDS011;46851;49.160;8.980;2023-04-15T06:16:04;15.93;;;6.82;;
60979;SDS011;46851;49.160;8.980;2023-04-15T06:18:30;12.20;;;6.47;;
60979;SDS011;46851;49.160;8.980;2023-04-15T06:20:56;11.13;;;7.40;;
60979;SDS011;46851;49.160;8.980;2023-04-15T06:23:22;12.10;;;7.18;;
60979;SDS011;46851;49.160;8.980;2023-04-15T06:25:48;13.65;;;6.22;;
60979;SDS011;46851;49.160;8.980;2023-04-15T06:28:14;13.85;;;5.97;;
60979;SDS011;46851;49.160;8.980;2023-04-15T06:30:40;10.60;;;5.60;;
60979;SDS011;46851;49.160;8.980;2023-04-15T06:33:06;7.95;;;5.65;;
60979;SDS011;46851;49.160;8.980;2023-04-15T06:35:34;8.60;;;5.70;;
60979;SDS011;46851;49.160;8.980;2023-04-15T06:38:00;8.45;;;5.38;;
60979;SDS011;46851;49.160;8.980;2023-04-15T06:40:26;11.93;;;5.65;;
60979;SDS011;46851;49.160;8.980;2023-04-15T06:42:52;11.32;;;5.50;;
60979;SDS011;46851;49.160;8.980;2023-04-15T06:45:18;10.75;;;5.43;;
60979;SDS011;46851;49.160;8.980;2023-04-15T06:47:44;7.78;;;5.40;;
60979;SDS011;46851;49.160;8.980;2023-04-15T06:50:10;8.25;;;5.00;;
60979;SDS011;46851;49.160;8.980;2023-04-15T06:52:37;13.40;;;5.68;;
60979;SDS011;46851;49.160;8.980;2023-04-15T06:55:04;10.30;;;5.50;;
60979;SDS011;46851;49.160;8.980;2023-04-15T06:57:31;15.55;;;6.00;;
60979;SDS011;46851;49.160;8.980;2023-04-15T06:59:57;10.52;;;6.25;;
60979;SDS011;46851;49.160;8.980;2023-04-15T07:02:23;10.23;;;5.85;;
60979;SDS011;46851;49.160;8.980;2023-04-15T07:04:49;10.52;;;5.43;;
60979;SDS011;46851;49.160;8.980;2023-04-15T07:07:15;7.90;;;5.50;;
60979;SDS011;46851;49.160;8.980;2023-04-15T07:09:41;10.00;;;5.90;;
60979;SDS011;46851;49.160;8.980;2023-04-15T07:12:07;11.65;;;5.70;;
60979;SDS011;46851;49.160;8.980;2023-04-15T07:14:33;13.30;;;6.47;;
60979;SDS011;46851;49.160;8.980;2023-04-15T07:16:59;10.85;;;6.15;;
60979;SDS011;46851;49.160;8.980;2023-04-15T07:19:25;8.95;;;5.90;;
60979;SDS011;46851;49.160;8.980;2023-04-15T07:21:51;13.07;;;6.05;;
60979;SDS011;46851;49.160;8.980;2023-04-15T07:24:17;12.88;;;6.30;;
60979;SDS011;46851;49.160;8.980;2023-04-15T07:26:44;12.10;;;6.32;;
60979;SDS011;46851;49.160;8.980;2023-04-15T07:29:11;10.98;;;6.10;;
60979;SDS011;46851;49.160;8.980;2023-04-15T07:31:37;13.57;;;6.28;;
60979;SDS011;46851;49.160;8.980;2023-04-15T07:34:03;13.27;;;6.60;;
60979;SDS011;46851;49.160;8.980;2023-04-15T07:36:29;13.80;;;6.28;;
60979;SDS011;46851;49.160;8.980;2023-04-15T07:38:55;8.55;;;5.70;;
60979;SDS011;46851;49.160;8.980;2023-04-15T07:41:22;13.05;;;6.15;;
60979;SDS011;46851;49.160;8.980;2023-04-15T07:43:48;13.77;;;7.25;;
60979;SDS011;46851;49.160;8.980;2023-04-15T07:46:14;11.75;;;6.10;;
60979;SDS011;46851;49.160;8.980;2023-04-15T07:48:40;13.55;;;6.38;;
60979;SDS011;46851;49.160;8.980;2023-04-15T07:51:06;16.25;;;6.63;;
60979;SDS011;46851;49.160;8.980;2023-04-15T07:53:32;16.20;;;5.70;;
60979;SDS011;46851;49.160;8.980;2023-04-15T07:55:58;12.90;;;5.72;;
60979;SDS011;46851;49.160;8.980;2023-04-15T07:58:25;11.40;;;6.07;;
60979;SDS011;46851;49.160;8.980;2023-04-15T08:00:51;14.63;;;5.63;;
60979;SDS011;46851;49.160;8.980;2023-04-15T08:03:19;10.48;;;5.20;;
60979;SDS011;46851;49.160;8.980;2023-04-15T08:05:46;16.35;;;5.93;;
60979;SDS011;46851;49.160;8.980;2023-04-15T08:08:12;14.57;;;6.70;;
60979;SDS011;46851;49.160;8.980;2023-04-15T08:10:38;10.98;;;5.50;;
60979;SDS011;46851;49.160;8.980;2023-04-15T08:13:05;9.73;;;5.68;;
60979;SDS011;46851;49.160;8.980;2023-04-15T08:15:31;14.48;;;5.18;;
60979;SDS011;46851;49.160;8.980;2023-04-15T08:17:57;8.52;;;5.25;;
60979;SDS011;46851;49.160;8.980;2023-04-15T08:20:25;15.15;;;5.53;;
60979;SDS011;46851;49.160;8.980;2023-04-15T08:22:51;12.30;;;5.03;;
60979;SDS011;46851;49.160;8.980;2023-04-15T08:25:17;10.23;;;5.75;;
60979;SDS011;46851;49.160;8.980;2023-04-15T08:27:44;12.27;;;5.97;;
60979;SDS011;46851;49.160;8.980;2023-04-15T08:30:10;12.82;;;5.85;;
60979;SDS011;46851;49.160;8.980;2023-04-15T08:32:37;14.63;;;5.75;;
60979;SDS011;46851;49.160;8.980;2023-04-15T08:35:03;6.82;;;4.32;;
60979;SDS011;46851;49.160;8.980;2023-04-15T08:37:29;6.47;;;4.10;;
60979;SDS011;46851;49.160;8.980;2023-04-15T08:39:55;12.38;;;4.50;;
60979;SDS011;46851;49.160;8.980;2023-04-15T08:42:29;13.93;;;4.40;;
60979;SDS011;46851;49.160;8.980;2023-04-15T08:44:57;8.73;;;4.13;;
60979;SDS011;46851;49.160;8.980;2023-04-15T08:47:25;9.80;;;3.75;;
60979;SDS011;46851;49.160;8.980;2023-04-15T08:49:54;6.35;;;3.45;;
60979;SDS011;46851;49.160;8.980;2023-04-15T08:52:23;7.38;;;3.50;;
60979;SDS011;46851;49.160;8.980;2023-04-15T08:54:49;5.05;;;3.10;;
60979;SDS011;46851;49.160;8.980;2023-04-15T08:57:15;5.85;;;3.50;;
60979;SDS011;46851;49.160;8.980;2023-04-15T08:59:42;7.25;;;3.47;;
60979;SDS011;46851;49.160;8.980;2023-04-15T09:02:08;6.93;;;3.28;;
60979;SDS011;46851;49.160;8.980;2023-04-15T09:04:34;5.97;;;4.18;;
60979;SDS011;46851;49.160;8.980;2023-04-15T09:07:00;8.73;;;3.47;;
60979;SDS011;46851;49.160;8.980;2023-04-15T09:09:26;7.50;;;3.83;;
60979;SDS011;46851;49.160;8.980;2023-04-15T09:11:53;8.75;;;4.07;;
60979;SDS011;46851;49.160;8.980;2023-04-15T09:14:19;6.82;;;3.30;;
60979;SDS011;46851;49.160;8.980;2023-04-15T09:17:03;4.07;;;2.85;;
60979;SDS011;46851;49.160;8.980;2023-04-15T09:19:29;6.93;;;3.58;;
60979;SDS011;46851;49.160;8.980;2023-04-15T09:21:56;7.57;;;3.10;;
60979;SDS011;46851;49.160;8.980;2023-04-15T09:24:22;4.40;;;3.05;;
60979;SDS011;46851;49.160;8.980;2023-04-15T09:26:52;6.28;;;3.20;;
60979;SDS011;46851;49.160;8.980;2023-04-15T09:29:19;6.38;;;3.22;;
60979;SDS011;46851;49.160;8.980;2023-04-15T09:31:45;8.63;;;3.50;;
60979;SDS011;46851;49.160;8.980;2023-04-15T09:34:11;8.23;;;3.28;;
60979;SDS011;46851;49.160;8.980;2023-04-15T09:36:40;6.75;;;2.50;;
60979;SDS011;46851;49.160;8.980;2023-04-15T09:39:16;4.45;;;2.33;;
60979;SDS011;46851;49.160;8.980;2023-04-15T09:41:42;7.40;;;2.80;;
60979;SDS011;46851;49.160;8.980;2023-04-15T09:44:23;6.53;;;2.40;;
60979;SDS011;46851;49.160;8.980;2023-04-15T09:46:50;4.00;;;2.15;;
60979;SDS011;46851;49.160;8.980;2023-04-15T09:49:16;6.68;;;2.53;;
60979;SDS011;46851;49.160;8.980;2023-04-15T09:51:42;7.13;;;2.20;;
60979;SDS011;46851;49.160;8.980;2023-04-15T09:54:08;8.15;;;2.72;;
60979;SDS011;46851;49.160;8.980;2023-04-15T09:56:35;4.38;;;2.33;;
60979;SDS011;46851;49.160;8.980;2023-04-15T09:59:02;3.95;;;2.30;;
60979;SDS011;46851;49.160;8.980;2023-04-15T10:01:29;6.10;;;2.38;;
60979;SDS011;46851;49.160;8.980;2023-04-15T10:03:56;3.97;;;2.20;;
60979;SDS011;46851;49.160;8.980;2023-04-15T10:06:25;4.85;;;2.30;;
60979;SDS011;46851;49.160;8.980;2023-04-15T10:08:52;5.03;;;2.30;;
60979;SDS011;46851;49.160;8.980;2023-04-15T10:11:18;7.00;;;2.47;;
60979;SDS011;46851;49.160;8.980;2023-04-15T10:13:47;4.68;;;2.33;;
60979;SDS011;46851;49.160;8.980;2023-04-15T10:16:15;6.35;;;2.28;;
60979;SDS011;46851;49.160;8.980;2023-04-15T10:18:42;3.72;;;2.38;;
60979;SDS011;46851;49.160;8.980;2023-04-15T10:21:08;4.78;;;2.60;;
60979;SDS011;46851;49.160;8.980;2023-04-15T10:23:34;7.32;;;2.00;;
60979;SDS011;46851;49.160;8.980;2023-04-15T10:26:01;4.18;;;2.40;;
60979;SDS011;46851;49.160;8.980;2023-04-15T10:28:28;6.40;;;2.45;;
60979;SDS011;46851;49.160;8.980;2023-04-15T10:30:54;6.68;;;2.50;;
60979;SDS011;46851;49.160;8.980;2023-04-15T10:33:22;5.57;;;2.33;;
60979;SDS011;46851;49.160;8.980;2023-04-15T10:35:49;6.88;;;2.67;;
60979;SDS011;46851;49.160;8.980;2023-04-15T10:38:35;6.68;;;2.38;;
60979;SDS011;46851;49.160;8.980;2023-04-15T10:41:20;4.63;;;2.30;;
60979;SDS011;46851;49.160;8.980;2023-04-15T10:43:54;7.97;;;2.97;;
60979;SDS011;46851;49.160;8.980;2023-04-15T10:46:22;4.22;;;2.40;;
60979;SDS011;46851;49.160;8.980;2023-04-15T10:48:50;5.88;;;2.47;;
60979;SDS011;46851;49.160;8.980;2023-04-15T10:51:25;5.72;;;2.67;;
60979;SDS011;46851;49.160;8.980;2023-04-15T10:53:54;7.57;;;2.88;;
60979;SDS011;46851;49.160;8.980;2023-04-15T10:56:20;4.70;;;2.40;;
60979;SDS011;46851;49.160;8.980;2023-04-15T10:58:46;6.95;;;2.42;;
60979;SDS011;46851;49.160;8.980;2023-04-15T11:01:12;5.45;;;2.20;;
60979;SDS011;46851;49.160;8.980;2023-04-15T11:03:39;6.22;;;2.20;;
60979;SDS011;46851;49.160;8.980;2023-04-15T11:06:06;6.00;;;2.17;;
60979;SDS011;46851;49.160;8.980;2023-04-15T11:11:16;4.20;;;2.30;;
60979;SDS011;46851;49.160;8.980;2023-04-15T11:13:49;6.25;;;2.63;;
60979;SDS011;46851;49.160;8.980;2023-04-15T11:16:16;4.60;;;2.40;;
60979;SDS011;46851;49.160;8.980;2023-04-15T11:18:42;4.10;;;2.45;;
60979;SDS011;46851;49.160;8.980;2023-04-15T11:21:17;9.38;;;2.35;;
60979;SDS011;46851;49.160;8.980;2023-04-15T11:23:44;9.63;;;2.85;;
60979;SDS011;46851;49.160;8.980;2023-04-15T11:26:11;4.53;;;2.38;;
60979;SDS011;46851;49.160;8.980;2023-04-15T11:28:38;4.57;;;2.20;;
60979;SDS011;46851;49.160;8.980;2023-04-15T11:31:06;3.35;;;2.03;;
60979;SDS011;46851;49.160;8.980;2023-04-15T11:33:32;5.05;;;1.88;;
60979;SDS011;46851;49.160;8.980;2023-04-15T11:35:59;3.10;;;1.70;;
60979;SDS011;46851;49.160;8.980;2023-04-15T11:38:25;5.70;;;2.10;;
60979;SDS011;46851;49.160;8.980;2023-04-15T11:40:51;6.75;;;1.80;;
60979;SDS011;46851;49.160;8.980;2023-04-15T11:43:18;2.05;;;1.20;;
60979;SDS011;46851;49.160;8.980;2023-04-15T11:46:00;1.75;;;1.10;;
60979;SDS011;46851;49.160;8.980;2023-04-15T11:48:27;2.45;;;1.40;;
60979;SDS011;46851;49.160;8.980;2023-04-15T11:50:57;3.55;;;1.20;;
60979;SDS011;46851;49.160;8.980;2023-04-15T11:55:51;1.98;;;0.88;;
60979;SDS011;46851;49.160;8.980;2023-04-15T11:58:18;3.65;;;1.10;;
60979;SDS011;46851;49.160;8.980;2023-04-15T12:00:45;2.80;;;0.88;;
60979;SDS011;46851;49.160;8.980;2023-04-15T12:03:24;1.50;;;1.00;;
60979;SDS011;46851;49.160;8.980;2023-04-15T12:11:17;1.95;;;0.95;;
60979;SDS011;46851;49.160;8.980;2023-04-15T12:13:46;3.30;;;1.08;;
60979;SDS011;46851;49.160;8.980;2023-04-15T12:16:19;1.98;;;0.95;;
60979;SDS011;46851;49.160;8.980;2023-04-15T12:18:46;4.22;;;1.08;;
60979;SDS011;46851;49.160;8.980;2023-04-15T12:21:12;3.00;;;0.90;;
60979;SDS011;46851;49.160;8.980;2023-04-15T12:23:39;4.72;;;1.05;;
60979;SDS011;46851;49.160;8.980;2023-04-15T12:26:13;2.53;;;1.00;;
60979;SDS011;46851;49.160;8.980;2023-04-15T12:28:39;2.03;;;0.90;;
60979;SDS011;46851;49.160;8.980;2023-04-15T12:31:08;3.70;;;1.05;;
60979;SDS011;46851;49.160;8.980;2023-04-15T12:33:35;3.88;;;1.00;;
60979;SDS011;46851;49.160;8.980;2023-04-15T12:36:02;2.20;;;0.70;;
60979;SDS011;46851;49.160;8.980;2023-04-15T12:38:28;3.63;;;0.85;;
60979;SDS011;46851;49.160;8.980;2023-04-15T12:40:55;1.42;;;0.70;;
60979;SDS011;46851;49.160;8.980;2023-04-15T12:43:21;1.27;;;0.57;;
60979;SDS011;46851;49.160;8.980;2023-04-15T12:45:47;0.85;;;0.40;;
60979;SDS011;46851;49.160;8.980;2023-04-15T12:48:13;3.00;;;0.40;;
60979;SDS011;46851;49.160;8.980;2023-04-15T12:50:39;0.65;;;0.40;;
60979;SDS011;46851;49.160;8.980;2023-04-15T12:53:05;0.95;;;0.43;;
60979;SDS011;46851;49.160;8.980;2023-04-15T12:55:31;1.00;;;0.60;;
60979;SDS011;46851;49.160;8.980;2023-04-15T12:57:57;2.17;;;0.70;;
60979;SDS011;46851;49.160;8.980;2023-04-15T13:00:23;2.90;;;0.90;;
60979;SDS011;46851;49.160;8.980;2023-04-15T13:02:49;1.95;;;0.80;;
60979;SDS011;46851;49.160;8.980;2023-04-15T13:05:15;1.83;;;0.90;;
60979;SDS011;46851;49.160;8.980;2023-04-15T13:07:41;1.73;;;1.20;;
60979;SDS011;46851;49.160;8.980;2023-04-15T13:10:07;1.38;;;0.77;;
60979;SDS011;46851;49.160;8.980;2023-04-15T13:12:33;2.45;;;1.10;;
60979;SDS011;46851;49.160;8.980;2023-04-15T13:15:03;0.93;;;0.90;;
60979;SDS011;46851;49.160;8.980;2023-04-15T13:17:29;2.40;;;0.90;;
60979;SDS011;46851;49.160;8.980;2023-04-15T13:19:55;1.65;;;1.30;;
60979;SDS011;46851;49.160;8.980;2023-04-15T13:22:21;4.70;;;1.38;;
60979;SDS011;46851;49.160;8.980;2023-04-15T13:24:47;2.25;;;1.10;;
60979;SDS011;46851;49.160;8.980;2023-04-15T13:27:13;1.70;;;1.05;;
60979;SDS011;46851;49.160;8.980;2023-04-15T13:29:39;1.58;;;1.10;;
60979;SDS011;46851;49.160;8.980;2023-04-15T13:32:06;3.90;;;1.10;;
60979;SDS011;46851;49.160;8.980;2023-04-15T13:34:32;2.30;;;1.15;;
60979;SDS011;46851;49.160;8.980;2023-04-15T13:36:58;4.78;;;1.10;;
60979;SDS011;46851;49.160;8.980;2023-04-15T13:39:24;2.58;;;1.40;;
60979;SDS011;46851;49.160;8.980;2023-04-15T13:41:51;1.40;;;1.08;;
60979;SDS011;46851;49.160;8.980;2023-04-15T13:44:17;2.28;;;1.60;;
60979;SDS011;46851;49.160;8.980;2023-04-15T13:46:43;4.95;;;1.98;;
60979;SDS011;46851;49.160;8.980;2023-04-15T13:49:09;4.43;;;1.50;;
60979;SDS011;46851;49.160;8.980;2023-04-15T13:51:35;1.80;;;1.25;;
60979;SDS011;46851;49.160;8.980;2023-04-15T13:54:01;3.53;;;1.38;;
60979;SDS011;46851;49.160;8.980;2023-04-15T13:56:27;4.45;;;1.45;;
60979;SDS011;46851;49.160;8.980;2023-04-15T13:58:54;3.10;;;1.40;;
60979;SDS011;46851;49.160;8.980;2023-04-15T14:01:23;4.00;;;1.50;;
60979;SDS011;46851;49.160;8.980;2023-04-15T14:03:49;2.45;;;1.00;;
60979;SDS011;46851;49.160;8.980;2023-04-15T14:06:15;3.30;;;1.30;;
60979;SDS011;46851;49.160;8.980;2023-04-15T14:08:41;1.63;;;1.20;;
60979;SDS011;46851;49.160;8.980;2023-04-15T14:11:07;5.93;;;1.50;;
60979;SDS011;46851;49.160;8.980;2023-04-15T14:13:33;2.28;;;1.40;;
60979;SDS011;46851;49.160;8.980;2023-04-15T14:15:59;1.73;;;1.00;;
60979;SDS011;46851;49.160;8.980;2023-04-15T14:18:25;4.80;;;1.33;;
60979;SDS011;46851;49.160;8.980;2023-04-15T14:20:51;3.08;;;1.50;;
60979;SDS011;46851;49.160;8.980;2023-04-15T14:23:17;2.70;;;1.48;;
60979;SDS011;46851;49.160;8.980;2023-04-15T14:25:43;6.03;;;1.70;;
60979;SDS011;46851;49.160;8.980;2023-04-15T14:28:09;4.13;;;1.67;;
60979;SDS011;46851;49.160;8.980;2023-04-15T14:30:35;2.38;;;1.20;;
60979;SDS011;46851;49.160;8.980;2023-04-15T14:33:01;2.47;;;1.30;;
60979;SDS011;46851;49.160;8.980;2023-04-15T14:35:27;2.83;;;1.38;;
60979;SDS011;46851;49.160;8.980;2023-04-15T14:37:53;3.15;;;1.30;;
60979;SDS011;46851;49.160;8.980;2023-04-15T14:40:19;5.07;;;1.48;;
60979;SDS011;46851;49.160;8.980;2023-04-15T14:42:45;2.38;;;1.40;;
60979;SDS011;46851;49.160;8.980;2023-04-15T14:45:11;2.10;;;1.25;;
60979;SDS011;46851;49.160;8.980;2023-04-15T14:47:37;6.07;;;1.60;;